createdAt,value
2018-12-01T00:01:57.580Z,8.55
2018-12-01T00:04:28.374Z,5.47
2018-12-01T00:07:17.796Z,5.35
2018-12-01T00:09:48.449Z,7.03
2018-12-01T00:12:19.178Z,4.25
2018-12-01T00:14:50.747Z,5.85
2018-12-01T00:17:21.525Z,4.33
2018-12-01T00:19:52.258Z,7.58
2018-12-01T00:22:23.028Z,7.65
2018-12-01T00:24:53.757Z,6.33
2018-12-01T00:27:31.143Z,6.60
2018-12-01T00:30:01.793Z,6.58
2018-12-01T00:32:32.480Z,41.48
2018-12-01T00:35:04.227Z,8.50
2018-12-01T00:37:34.939Z,6.65
2018-12-01T00:40:07.429Z,3.92
2018-12-01T00:42:38.137Z,9.13
2018-12-01T00:45:11.091Z,8.80
2018-12-01T00:47:41.920Z,9.70
2018-12-01T00:50:15.491Z,7.08
2018-12-01T00:52:46.603Z,22.03
2018-12-01T00:55:18.146Z,7.23
2018-12-01T00:57:49.109Z,4.87
2018-12-01T01:00:21.505Z,4.50
2018-12-01T01:02:56.974Z,23.93
2018-12-01T01:05:29.529Z,15.48
2018-12-01T01:08:01.060Z,4.90
2018-12-01T01:10:34.681Z,3.57
2018-12-01T01:13:05.077Z,17.00
2018-12-01T01:15:35.775Z,25.40
2018-12-01T01:18:06.727Z,45.65
2018-12-01T01:20:37.516Z,11.48
2018-12-01T01:23:08.562Z,4.47
2018-12-01T01:25:39.286Z,4.30
2018-12-01T01:28:10.023Z,3.70
2018-12-01T01:30:40.761Z,4.80
2018-12-01T01:33:21.914Z,3.93
2018-12-01T01:35:52.564Z,4.50
2018-12-01T01:38:23.250Z,4.37
2018-12-01T01:40:58.749Z,5.87
2018-12-01T01:43:29.390Z,4.55
2018-12-01T01:46:00.038Z,4.13
2018-12-01T01:48:30.985Z,6.83
2018-12-01T01:51:01.670Z,5.05
2018-12-01T01:53:32.366Z,5.05
2018-12-01T01:56:03.185Z,6.33
2018-12-01T01:58:33.806Z,5.33
2018-12-01T02:01:04.534Z,5.28
2018-12-01T02:03:35.328Z,8.68
2018-12-01T02:06:06.043Z,8.40
2018-12-01T02:08:36.639Z,8.05
2018-12-01T02:11:07.779Z,7.25
2018-12-01T02:13:38.581Z,5.23
2018-12-01T02:16:09.399Z,5.37
2018-12-01T02:18:40.262Z,6.78
2018-12-01T02:21:11.255Z,7.22
2018-12-01T02:23:41.859Z,8.13
2018-12-01T02:26:12.687Z,7.12
2018-12-01T02:28:43.261Z,13.90
2018-12-01T02:31:13.871Z,9.20
2018-12-01T02:33:45.370Z,11.57
2018-12-01T02:36:16.204Z,9.75
2018-12-01T02:38:47.059Z,10.32
2018-12-01T02:41:17.809Z,14.40
2018-12-01T02:43:57.822Z,13.72
2018-12-01T02:46:39.040Z,25.10
2018-12-01T02:49:09.994Z,31.70
2018-12-01T02:51:40.685Z,24.75
2018-12-01T02:54:11.545Z,31.75
2018-12-01T02:56:42.528Z,16.90
2018-12-01T02:59:13.081Z,11.43
2018-12-01T03:01:43.769Z,21.90
2018-12-01T03:04:14.419Z,20.30
2018-12-01T03:06:45.279Z,32.15
2018-12-01T03:09:16.089Z,34.05
2018-12-01T03:11:46.931Z,16.67
2018-12-01T03:14:17.651Z,11.55
2018-12-01T03:16:48.566Z,14.28
2018-12-01T03:19:19.829Z,11.88
2018-12-01T03:21:50.537Z,14.07
2018-12-01T03:24:21.224Z,13.65
2018-12-01T03:26:52.053Z,14.70
2018-12-01T03:29:22.782Z,13.48
2018-12-01T03:31:53.453Z,17.32
2018-12-01T03:34:24.157Z,18.62
2018-12-01T03:36:54.935Z,24.00
2018-12-01T03:39:25.642Z,26.70
2018-12-01T03:41:56.556Z,38.75
2018-12-01T03:44:27.145Z,21.10
2018-12-01T03:46:58.050Z,15.17
2018-12-01T03:49:28.731Z,17.57
2018-12-01T03:51:59.577Z,15.98
2018-12-01T03:54:30.147Z,10.40
2018-12-01T03:57:00.800Z,13.15
2018-12-01T03:59:31.431Z,9.10
2018-12-01T04:02:02.227Z,11.08
2018-12-01T04:04:32.880Z,12.15
2018-12-01T04:07:03.661Z,14.23
2018-12-01T04:09:34.285Z,15.30
2018-12-01T04:12:04.964Z,16.17
2018-12-01T04:14:35.629Z,11.80
2018-12-01T04:17:06.401Z,8.55
2018-12-01T04:19:37.045Z,9.93
2018-12-01T04:22:08.117Z,34.63
2018-12-01T04:24:39.049Z,27.05
2018-12-01T04:27:10.184Z,14.10
2018-12-01T04:29:40.950Z,20.85
2018-12-01T04:32:12.186Z,6.80
2018-12-01T04:34:42.987Z,14.10
2018-12-01T04:37:13.866Z,11.95
2018-12-01T04:39:44.670Z,10.05
2018-12-01T04:42:15.565Z,30.92
2018-12-01T04:44:46.171Z,24.02
2018-12-01T04:47:16.806Z,20.02
2018-12-01T04:49:47.649Z,24.65
2018-12-01T04:52:18.504Z,72.32
2018-12-01T04:54:49.384Z,45.73
2018-12-01T04:57:20.173Z,24.47
2018-12-01T04:59:50.880Z,15.35
2018-12-01T05:02:21.691Z,22.67
2018-12-01T05:04:52.446Z,27.73
2018-12-01T05:07:23.306Z,34.35
2018-12-01T05:09:54.439Z,23.62
2018-12-01T05:12:25.274Z,26.50
2018-12-01T05:14:56.048Z,15.08
2018-12-01T05:17:26.724Z,36.35
2018-12-01T05:19:57.445Z,16.00
2018-12-01T05:22:28.120Z,35.53
2018-12-01T05:24:59.264Z,29.75
2018-12-01T05:27:30.050Z,36.53
2018-12-01T05:30:00.837Z,15.55
2018-12-01T05:32:31.716Z,24.20
2018-12-01T05:35:02.558Z,12.50
2018-12-01T05:37:33.288Z,12.18
2018-12-01T05:40:04.270Z,15.18
2018-12-01T05:42:35.056Z,37.63
2018-12-01T05:45:07.001Z,23.50
2018-12-01T05:47:37.692Z,28.95
2018-12-01T05:50:09.440Z,32.98
2018-12-01T05:52:40.148Z,49.03
2018-12-01T05:55:13.261Z,29.23
2018-12-01T05:57:44.121Z,25.15
2018-12-01T06:00:16.514Z,43.92
2018-12-01T06:02:47.400Z,39.35
2018-12-01T06:05:18.288Z,35.67
2018-12-01T06:07:49.401Z,21.03
2018-12-01T06:10:22.960Z,12.58
2018-12-01T06:12:54.702Z,12.80
2018-12-01T06:15:25.427Z,23.03
2018-12-01T06:17:56.213Z,26.87
2018-12-01T06:20:30.282Z,28.53
2018-12-01T06:23:01.411Z,18.10
2018-12-01T06:25:31.928Z,17.82
2018-12-01T06:28:02.510Z,16.00
2018-12-01T06:30:33.013Z,31.27
2018-12-01T06:33:03.481Z,21.40
2018-12-01T06:35:34.225Z,18.43
2018-12-01T06:38:04.967Z,16.20
2018-12-01T06:40:35.495Z,26.70
2018-12-01T06:43:06.478Z,23.23
2018-12-01T06:45:36.988Z,19.63
2018-12-01T06:48:07.805Z,19.90
2018-12-01T06:50:38.305Z,13.80
2018-12-01T06:53:09.277Z,10.57
2018-12-01T06:55:39.744Z,9.93
2018-12-01T06:58:10.388Z,11.37
2018-12-01T07:00:40.877Z,19.03
2018-12-01T07:03:14.764Z,24.83
2018-12-01T07:05:46.898Z,18.10
2018-12-01T07:08:18.206Z,26.70
2018-12-01T07:10:48.727Z,12.33
2018-12-01T07:13:19.945Z,10.17
2018-12-01T07:15:50.601Z,28.53
2018-12-01T07:18:31.764Z,10.60
2018-12-01T07:21:02.429Z,12.00
2018-12-01T07:23:34.025Z,19.40
2018-12-01T07:26:04.725Z,50.47
2018-12-01T07:28:36.087Z,29.93
2018-12-01T07:31:06.634Z,57.27
2018-12-01T07:33:37.633Z,43.40
2018-12-01T07:36:08.322Z,41.00
2018-12-01T07:38:39.280Z,47.83
2018-12-01T07:41:10.363Z,44.07
2018-12-01T07:43:40.797Z,25.93
2018-12-01T07:46:11.508Z,30.73
2018-12-01T07:48:43.471Z,17.07
2018-12-01T07:51:14.101Z,14.50
2018-12-01T07:53:47.707Z,19.13
2018-12-01T07:56:18.289Z,19.00
2018-12-01T07:58:49.209Z,14.13
2018-12-01T08:01:19.803Z,23.07
2018-12-01T08:03:50.431Z,15.77
2018-12-01T08:06:21.180Z,21.37
2018-12-01T08:08:52.119Z,23.67
2018-12-01T08:11:25.775Z,12.40
2018-12-01T08:13:56.297Z,15.83
2018-12-01T08:16:26.844Z,19.70
2018-12-01T08:18:57.417Z,14.20
2018-12-01T08:21:27.971Z,13.27
2018-12-01T08:23:58.692Z,24.83
2018-12-01T08:26:29.578Z,24.13
2018-12-01T08:29:00.471Z,22.13
2018-12-01T08:31:31.038Z,20.13
2018-12-01T08:34:01.630Z,18.57
2018-12-01T08:36:32.259Z,11.20
2018-12-01T08:39:02.865Z,17.27
2018-12-01T08:41:33.705Z,7.83
2018-12-01T08:44:13.250Z,16.13
2018-12-01T08:46:44.222Z,14.37
2018-12-01T08:49:15.004Z,43.03
2018-12-01T08:51:45.612Z,23.30
2018-12-01T08:54:16.227Z,23.00
2018-12-01T08:56:47.392Z,17.57
2018-12-01T08:59:17.904Z,18.03
2018-12-01T09:01:48.538Z,26.53
2018-12-01T09:04:19.389Z,20.30
2018-12-01T09:06:49.942Z,21.43
2018-12-01T09:09:20.478Z,20.47
2018-12-01T09:11:51.058Z,15.97
2018-12-01T09:14:21.665Z,47.63
2018-12-01T09:16:52.154Z,43.40
2018-12-01T09:19:22.689Z,33.77
2018-12-01T09:21:53.150Z,20.03
2018-12-01T09:24:23.818Z,40.27
2018-12-01T09:26:54.362Z,27.10
2018-12-01T09:29:25.092Z,26.93
2018-12-01T09:31:55.814Z,31.20
2018-12-01T09:34:26.520Z,24.40
2018-12-01T09:36:57.173Z,21.90
2018-12-01T09:39:27.747Z,19.57
2018-12-01T09:41:58.307Z,29.63
2018-12-01T09:44:29.205Z,27.50
2018-12-01T09:46:59.689Z,24.53
2018-12-01T09:49:30.500Z,39.97
2018-12-01T09:52:01.143Z,28.83
2018-12-01T09:54:31.706Z,20.80
2018-12-01T09:57:02.279Z,22.17
2018-12-01T09:59:33.346Z,16.37
2018-12-01T10:02:03.999Z,18.17
2018-12-01T10:04:34.883Z,16.73
2018-12-01T10:07:05.560Z,37.33
2018-12-01T10:09:36.432Z,16.67
2018-12-01T10:12:07.590Z,16.17
2018-12-01T10:14:38.351Z,19.03
2018-12-01T10:17:08.938Z,68.73
2018-12-01T10:19:42.813Z,40.00
2018-12-01T10:22:13.384Z,16.23
2018-12-01T10:24:44.050Z,21.77
2018-12-01T10:27:14.930Z,18.80
2018-12-01T10:29:45.652Z,46.40
2018-12-01T10:32:16.200Z,54.77
2018-12-01T10:34:46.779Z,24.83
2018-12-01T10:37:19.375Z,16.67
2018-12-01T10:39:49.924Z,16.63
2018-12-01T10:42:20.532Z,25.03
2018-12-01T10:44:51.093Z,21.97
2018-12-01T10:47:21.728Z,23.67
2018-12-01T10:49:53.045Z,57.00
2018-12-01T10:52:23.603Z,21.10
2018-12-01T10:54:54.481Z,47.83
2018-12-01T10:57:37.524Z,27.63
2018-12-01T11:00:18.396Z,33.07
2018-12-01T11:02:55.729Z,15.37
2018-12-01T11:05:25.844Z,24.10
2018-12-01T11:07:56.731Z,25.37
2018-12-01T11:10:27.461Z,18.60
2018-12-01T11:12:58.328Z,17.87
2018-12-01T11:15:29.556Z,16.63
2018-12-01T11:18:00.402Z,17.37
2018-12-01T11:20:31.054Z,31.07
2018-12-01T11:23:01.914Z,23.53
2018-12-01T11:25:33.026Z,23.13
2018-12-01T11:28:03.594Z,24.33
2018-12-01T11:30:34.451Z,16.13
2018-12-01T11:33:05.245Z,37.27
2018-12-01T11:35:36.166Z,26.47
2018-12-01T11:38:07.413Z,35.27
2018-12-01T11:40:38.128Z,35.47
2018-12-01T11:43:09.743Z,22.83
2018-12-01T11:45:40.388Z,34.10
2018-12-01T11:48:11.548Z,61.23
2018-12-01T11:50:42.529Z,41.10
2018-12-01T11:53:13.123Z,46.63
2018-12-01T11:55:43.743Z,43.47
2018-12-01T11:58:14.496Z,31.87
2018-12-01T12:00:45.319Z,36.70
2018-12-01T12:03:16.177Z,54.33
2018-12-01T12:05:46.987Z,22.43
2018-12-01T12:08:20.314Z,57.63
2018-12-01T12:10:50.942Z,48.23
2018-12-01T12:13:22.437Z,52.00
2018-12-01T12:15:53.774Z,32.63
2018-12-01T12:18:24.403Z,33.70
2018-12-01T12:20:55.068Z,34.73
2018-12-01T12:23:25.672Z,17.33
2018-12-01T12:25:56.495Z,24.67
2018-12-01T12:28:27.231Z,24.10
2018-12-01T12:30:58.350Z,36.80
2018-12-01T12:33:29.805Z,18.47
2018-12-01T12:36:00.702Z,35.23
2018-12-01T12:38:32.468Z,19.00
2018-12-01T12:41:04.363Z,16.83
2018-12-01T12:43:35.128Z,13.93
2018-12-01T12:46:06.069Z,22.20
2018-12-01T12:48:36.874Z,29.00
2018-12-01T12:51:07.441Z,15.13
2018-12-01T12:53:38.243Z,16.20
2018-12-01T12:56:09.284Z,33.97
2018-12-01T12:58:40.036Z,50.83
2018-12-01T13:01:10.768Z,51.67
2018-12-01T13:03:41.443Z,23.50
2018-12-01T13:06:12.131Z,44.73
2018-12-01T13:08:42.621Z,55.40
2018-12-01T13:11:13.139Z,27.07
2018-12-01T13:13:44.035Z,21.07
2018-12-01T13:16:14.500Z,20.50
2018-12-01T13:18:45.128Z,18.53
2018-12-01T13:21:15.828Z,15.47
2018-12-01T13:23:46.879Z,15.13
2018-12-01T13:26:17.530Z,26.47
2018-12-01T13:28:48.356Z,17.60
2018-12-01T13:31:18.880Z,24.47
2018-12-01T13:33:49.543Z,20.97
2018-12-01T13:36:20.350Z,18.93
2018-12-01T13:38:50.863Z,20.57
2018-12-01T13:41:21.567Z,20.97
2018-12-01T13:43:52.278Z,21.60
2018-12-01T13:46:23.110Z,24.27
2018-12-01T13:48:54.043Z,62.13
2018-12-01T13:51:25.104Z,35.53
2018-12-01T13:53:55.806Z,29.77
2018-12-01T13:56:26.453Z,40.33
2018-12-01T13:58:57.037Z,35.47
2018-12-01T14:01:27.564Z,26.27
2018-12-01T14:03:58.072Z,27.90
2018-12-01T14:06:28.626Z,27.23
2018-12-01T14:08:59.453Z,20.03
2018-12-01T14:11:30.314Z,20.77
2018-12-01T14:14:00.927Z,20.13
2018-12-01T14:16:31.413Z,17.63
2018-12-01T14:19:02.008Z,23.37
2018-12-01T14:21:32.520Z,24.87
2018-12-01T14:24:03.372Z,21.73
2018-12-01T14:26:34.133Z,22.83
2018-12-01T14:29:04.890Z,26.07
2018-12-01T14:31:35.462Z,16.10
2018-12-01T14:34:06.460Z,20.67
2018-12-01T14:36:37.150Z,18.20
2018-12-01T14:39:09.327Z,15.93
2018-12-01T14:41:40.076Z,18.50
2018-12-01T14:44:10.671Z,18.87
2018-12-01T14:46:41.209Z,19.70
2018-12-01T14:49:11.797Z,16.53
2018-12-01T14:51:42.530Z,18.63
2018-12-01T14:54:13.407Z,17.17
2018-12-01T14:56:43.913Z,16.63
2018-12-01T14:59:14.511Z,14.00
2018-12-01T15:01:45.217Z,20.10
2018-12-01T15:04:15.963Z,17.90
2018-12-01T15:06:46.527Z,27.97
2018-12-01T15:09:17.115Z,19.00
2018-12-01T15:11:49.697Z,17.20
2018-12-01T15:14:26.010Z,20.13
2018-12-01T15:16:57.327Z,26.70
2018-12-01T15:19:27.899Z,20.93
2018-12-01T15:21:58.861Z,17.97
2018-12-01T15:24:29.585Z,19.53
2018-12-01T15:27:00.558Z,15.53
2018-12-01T15:29:31.226Z,16.03
2018-12-01T15:32:02.004Z,31.93
2018-12-01T15:34:32.547Z,15.67
2018-12-01T15:37:03.236Z,14.67
2018-12-01T15:39:34.120Z,17.57
2018-12-01T15:42:05.122Z,17.63
2018-12-01T15:44:35.929Z,27.40
2018-12-01T15:47:06.636Z,26.33
2018-12-01T15:49:43.374Z,29.03
2018-12-01T15:52:17.514Z,25.17
2018-12-01T15:54:48.209Z,20.77
2018-12-01T15:57:18.768Z,16.43
2018-12-01T15:59:49.728Z,20.27
2018-12-01T16:02:20.417Z,14.70
2018-12-01T16:04:51.376Z,17.53
2018-12-01T16:07:23.057Z,20.10
2018-12-01T16:09:53.783Z,25.83
2018-12-01T16:12:24.471Z,29.63
2018-12-01T16:14:55.171Z,27.33
2018-12-01T16:17:25.982Z,25.63
2018-12-01T16:19:56.644Z,19.80
2018-12-01T16:22:27.169Z,17.47
2018-12-01T16:24:57.999Z,17.50
2018-12-01T16:27:28.569Z,18.80
2018-12-01T16:29:59.181Z,23.90
2018-12-01T16:32:29.858Z,24.83
2018-12-01T16:35:00.654Z,24.43
2018-12-01T16:37:31.733Z,22.07
2018-12-01T16:40:02.776Z,22.17
2018-12-01T16:42:33.723Z,19.30
2018-12-01T16:45:04.408Z,20.47
2018-12-01T16:47:35.133Z,17.90
2018-12-01T16:50:07.784Z,18.60
2018-12-01T16:52:38.946Z,18.50
2018-12-01T16:55:12.283Z,21.37
2018-12-01T16:57:42.932Z,25.97
2018-12-01T17:00:17.371Z,22.27
2018-12-01T17:02:49.346Z,24.37
2018-12-01T17:05:20.899Z,20.47
2018-12-01T17:07:51.653Z,33.50
2018-12-01T17:10:23.048Z,19.57
2018-12-01T17:12:55.012Z,23.90
2018-12-01T17:15:25.620Z,20.10
2018-12-01T17:17:56.924Z,25.57
2018-12-01T17:20:27.655Z,23.83
2018-12-01T17:22:59.647Z,20.73
2018-12-01T17:25:30.395Z,23.67
2018-12-01T17:28:01.296Z,24.87
2018-12-01T17:30:31.881Z,23.53
2018-12-01T17:33:05.248Z,20.80
2018-12-01T17:35:38.114Z,21.77
2018-12-01T17:38:11.702Z,23.03
2018-12-01T17:40:53.142Z,23.77
2018-12-01T17:43:35.288Z,25.40
2018-12-01T17:46:06.255Z,41.33
2018-12-01T17:48:37.338Z,33.07
2018-12-01T17:51:10.233Z,33.07
2018-12-01T17:53:46.157Z,29.63
2018-12-01T17:56:19.591Z,28.63
2018-12-01T17:58:54.026Z,25.33
2018-12-01T18:01:28.187Z,24.20
2018-12-01T18:06:31.961Z,24.47
2018-12-01T18:09:07.340Z,26.30
2018-12-01T18:11:42.547Z,24.37
2018-12-01T18:14:16.547Z,32.63
2018-12-01T18:16:50.223Z,32.50
2018-12-01T18:19:23.377Z,35.53
2018-12-01T18:21:57.110Z,42.50
2018-12-01T18:27:00.091Z,33.23
2018-12-01T18:29:34.462Z,30.10
2018-12-01T18:32:08.947Z,25.57
2018-12-01T18:34:45.098Z,28.37
2018-12-01T18:37:19.558Z,24.83
2018-12-01T18:39:54.051Z,27.63
2018-12-01T18:42:31.163Z,30.87
2018-12-01T18:45:05.637Z,34.43
2018-12-01T18:47:39.878Z,35.67
2018-12-01T18:50:20.400Z,67.17
2018-12-01T18:55:23.963Z,70.73
2018-12-01T18:57:58.558Z,69.30
2018-12-01T19:00:41.248Z,45.50
2018-12-01T19:03:17.067Z,43.63
2018-12-01T19:05:51.642Z,38.70
2018-12-01T19:08:26.526Z,38.67
2018-12-01T19:11:01.912Z,39.77
2018-12-01T19:13:38.013Z,28.57
2018-12-01T19:16:14.421Z,32.23
2018-12-01T19:18:49.050Z,34.47
2018-12-01T19:21:24.245Z,29.50
2018-12-01T19:23:59.234Z,30.97
2018-12-01T19:26:34.657Z,28.33
2018-12-01T19:29:09.965Z,28.47
2018-12-01T19:31:44.320Z,48.20
2018-12-01T19:34:19.624Z,37.80
2018-12-01T19:36:55.214Z,33.63
2018-12-01T19:39:29.002Z,28.07
2018-12-01T19:42:03.391Z,22.40
2018-12-01T19:44:38.973Z,23.03
2018-12-01T19:47:14.402Z,26.17
2018-12-01T19:49:49.238Z,26.83
2018-12-01T19:52:25.628Z,44.97
2018-12-01T19:55:02.050Z,30.47
2018-12-01T19:57:37.561Z,27.30
2018-12-01T20:00:17.000Z,29.27
2018-12-01T20:02:53.510Z,40.53
2018-12-01T20:05:28.953Z,28.40
2018-12-01T20:08:03.448Z,25.53
2018-12-01T20:10:40.637Z,27.33
2018-12-01T20:13:22.097Z,33.40
2018-12-01T20:15:58.626Z,31.47
2018-12-01T20:18:34.421Z,29.87
2018-12-01T20:21:09.808Z,38.80
2018-12-01T20:23:45.553Z,31.67
2018-12-01T20:26:20.357Z,36.07
2018-12-01T20:28:54.761Z,29.13
2018-12-01T20:31:29.234Z,30.73
2018-12-01T20:34:04.698Z,30.07
2018-12-01T20:36:47.824Z,32.87
2018-12-01T20:39:25.146Z,30.03
2018-12-01T20:41:59.127Z,30.30
2018-12-01T20:44:33.179Z,29.60
2018-12-01T20:47:07.457Z,30.33
2018-12-01T20:49:38.767Z,28.83
2018-12-01T20:52:11.095Z,28.37
2018-12-01T20:54:46.257Z,31.53
2018-12-01T20:57:22.100Z,35.27
2018-12-01T20:59:54.074Z,30.67
2018-12-01T21:02:25.028Z,33.60
2018-12-01T21:04:56.508Z,36.53
2018-12-01T21:07:28.528Z,32.40
2018-12-01T21:10:00.907Z,32.50
2018-12-01T21:12:32.772Z,36.20
2018-12-01T21:15:04.204Z,37.70
2018-12-01T21:17:35.674Z,29.83
2018-12-01T21:20:13.140Z,35.57
2018-12-01T21:22:48.225Z,32.07
2018-12-01T21:25:22.176Z,29.70
2018-12-01T21:27:55.241Z,28.27
2018-12-01T21:30:29.492Z,32.23
2018-12-01T21:33:02.834Z,26.23
2018-12-01T21:35:35.465Z,29.93
2018-12-01T21:38:11.882Z,32.80
2018-12-01T21:40:44.686Z,30.10
2018-12-01T21:43:17.166Z,29.90
2018-12-01T21:45:52.352Z,31.07
2018-12-01T21:48:23.122Z,37.13
2018-12-01T21:50:53.700Z,34.40
2018-12-01T21:53:27.069Z,31.73
2018-12-01T21:55:57.576Z,31.77
2018-12-01T21:58:28.345Z,30.10
2018-12-01T22:01:01.057Z,26.23
2018-12-01T22:03:32.861Z,29.47
2018-12-01T22:06:04.844Z,34.00
2018-12-01T22:08:36.224Z,42.20
2018-12-01T22:11:07.561Z,45.83
2018-12-01T22:13:38.214Z,36.13
2018-12-01T22:16:09.946Z,30.77
2018-12-01T22:18:40.587Z,31.67
2018-12-01T22:21:11.400Z,33.50
2018-12-01T22:23:42.157Z,33.53
2018-12-01T22:26:12.705Z,36.93
2018-12-01T22:28:43.321Z,32.07
2018-12-01T22:31:13.897Z,34.10
2018-12-01T22:33:44.402Z,29.17
2018-12-01T22:36:14.992Z,29.10
2018-12-01T22:38:45.587Z,30.87
2018-12-01T22:41:15.996Z,28.77
2018-12-01T22:43:47.111Z,33.47
2018-12-01T22:46:17.618Z,34.00
2018-12-01T22:48:48.467Z,30.73
2018-12-01T22:51:19.273Z,31.53
2018-12-01T22:53:50.204Z,33.10
2018-12-01T22:56:20.825Z,33.23
2018-12-01T22:58:51.751Z,35.77
2018-12-01T23:01:22.586Z,40.60
2018-12-01T23:03:53.284Z,45.63
2018-12-01T23:06:23.773Z,43.27
2018-12-01T23:08:54.631Z,52.87
2018-12-01T23:11:25.183Z,47.53
2018-12-01T23:13:55.845Z,40.70
2018-12-01T23:16:26.532Z,39.10
2018-12-01T23:18:57.070Z,38.03
2018-12-01T23:21:28.099Z,36.30
2018-12-01T23:23:58.703Z,34.33
2018-12-01T23:26:29.379Z,35.53
2018-12-01T23:28:59.930Z,43.30
2018-12-01T23:31:30.623Z,47.13
2018-12-01T23:34:01.375Z,49.70
2018-12-01T23:36:32.044Z,46.97
2018-12-01T23:39:02.697Z,44.57
2018-12-01T23:41:33.584Z,42.23
2018-12-01T23:44:04.203Z,39.90
2018-12-01T23:46:34.825Z,44.27
2018-12-01T23:49:05.513Z,42.07
2018-12-01T23:51:36.143Z,44.10
2018-12-01T23:54:06.874Z,42.87
2018-12-01T23:56:37.349Z,42.03
2018-12-01T23:59:08.035Z,44.20
